CheckWX is a tool to help pilots better visualize weather data.  It is not intended as a substitute for an official pre-flight weather briefing.

12:16:31 UTC

KSKF METAR
Kelly Field Airport
San Antonio, Texas, USA
Current

21 mins ago

KSKF 151156Z AUTO 19006KT 10SM OVC015 25/22 A2992 RMK AO2 SLP124 T02500221 10251 20244 53004
Observed
Oct-15 @ 11:56 UTC
Wind
  • 190° at 6 KTS
Visibility
10 SM
Flight Rules
MVFR
Cloud Levels
  • Overcast at 1,500' AGL
Temperature
25°C / 77°F
Dewpoint
22°C / 72°F
Humidity
83%
Altimeter
29.92" Hg
Pressure
1013.22 hPa
Previous

1 hour ago

KSKF 151101Z AUTO 20006KT 10SM OVC015 25/22 A2992 RMK AO2 SLP124
Observed
Oct-15 @ 11:01 UTC
Wind
  • 200° at 6 KTS
Visibility
10 SM
Flight Rules
MVFR
Cloud Levels
  • Overcast at 1,500' AGL
Temperature
25°C / 77°F
Dewpoint
22°C / 72°F
Humidity
83%
Altimeter
29.92" Hg
Pressure
1013.22 hPa
Previous

1 hour ago

KSKF 151056Z AUTO 20005KT 10SM OVC013 25/22 A2992 RMK AO2 SLP124 T02490222
Observed
Oct-15 @ 10:56 UTC
Wind
  • 200° at 5 KTS
Visibility
10 SM
Flight Rules
MVFR
Cloud Levels
  • Overcast at 1,300' AGL
Temperature
25°C / 77°F
Dewpoint
22°C / 72°F
Humidity
83%
Altimeter
29.92" Hg
Pressure
1013.22 hPa